sensor_id;sensor_type;location;lat;lon;timestamp;pressure;altitude;pressure_sealevel;temperature;humidity
8637;BME280;4356;49.068;8.658;2023-08-17T00:02:14;100022.88;;;28.50;49.73
8637;BME280;4356;49.068;8.658;2023-08-17T00:04:40;100021.19;;;28.49;49.96
8637;BME280;4356;49.068;8.658;2023-08-17T00:07:06;100026.44;;;28.50;49.94
8637;BME280;4356;49.068;8.658;2023-08-17T00:09:32;100019.03;;;28.46;49.96
8637;BME280;4356;49.068;8.658;2023-08-17T00:11:57;100031.72;;;28.47;49.58
8637;BME280;4356;49.068;8.658;2023-08-17T00:14:23;100021.22;;;28.43;49.88
8637;BME280;4356;49.068;8.658;2023-08-17T00:16:51;100023.47;;;28.41;49.94
8637;BME280;4356;49.068;8.658;2023-08-17T00:19:17;100013.81;;;28.39;49.79
8637;BME280;4356;49.068;8.658;2023-08-17T00:21:44;100014.06;;;28.37;49.92
8637;BME280;4356;49.068;8.658;2023-08-17T00:24:09;100026.50;;;28.40;49.98
8637;BME280;4356;49.068;8.658;2023-08-17T00:26:35;100024.03;;;28.38;50.10
8637;BME280;4356;49.068;8.658;2023-08-17T00:29:00;100017.97;;;28.36;50.18
8637;BME280;4356;49.068;8.658;2023-08-17T00:31:26;100024.31;;;28.37;49.84
8637;BME280;4356;49.068;8.658;2023-08-17T00:33:51;100010.75;;;28.35;49.79
8637;BME280;4356;49.068;8.658;2023-08-17T00:36:16;100014.66;;;28.34;49.72
8637;BME280;4356;49.068;8.658;2023-08-17T00:38:42;100018.78;;;28.32;49.91
8637;BME280;4356;49.068;8.658;2023-08-17T00:41:07;100013.56;;;28.30;49.96
8637;BME280;4356;49.068;8.658;2023-08-17T00:43:32;100011.38;;;28.27;50.02
8637;BME280;4356;49.068;8.658;2023-08-17T00:45:58;100014.69;;;28.29;49.99
8637;BME280;4356;49.068;8.658;2023-08-17T00:48:23;100002.25;;;28.27;49.72
8637;BME280;4356;49.068;8.658;2023-08-17T00:50:50;100007.22;;;28.25;49.92
8637;BME280;4356;49.068;8.658;2023-08-17T00:53:16;100009.69;;;28.26;49.77
8637;BME280;4356;49.068;8.658;2023-08-17T00:55:42;100014.13;;;28.27;49.71
8637;BME280;4356;49.068;8.658;2023-08-17T00:58:08;100002.81;;;28.24;50.00
8637;BME280;4356;49.068;8.658;2023-08-17T01:00:34;100008.34;;;28.24;49.82
8637;BME280;4356;49.068;8.658;2023-08-17T01:02:59;99998.69;;;28.21;49.92
8637;BME280;4356;49.068;8.658;2023-08-17T01:05:25;99996.19;;;28.20;49.79
8637;BME280;4356;49.068;8.658;2023-08-17T01:07:50;99996.19;;;28.20;49.73
8637;BME280;4356;49.068;8.658;2023-08-17T01:10:16;99993.72;;;28.18;49.71
8637;BME280;4356;49.068;8.658;2023-08-17T01:13:04;99994.56;;;28.19;49.68
8637;BME280;4356;49.068;8.658;2023-08-17T01:15:37;100006.72;;;28.18;49.86
8637;BME280;4356;49.068;8.658;2023-08-17T01:18:25;100003.69;;;28.14;49.74
8637;BME280;4356;49.068;8.658;2023-08-17T01:20:53;99993.75;;;28.13;49.94
8637;BME280;4356;49.068;8.658;2023-08-17T01:23:19;100010.34;;;28.13;49.83
8637;BME280;4356;49.068;8.658;2023-08-17T01:25:44;100008.66;;;28.12;49.84
8637;BME280;4356;49.068;8.658;2023-08-17T01:28:10;100000.66;;;28.11;50.14
8637;BME280;4356;49.068;8.658;2023-08-17T01:30:59;99998.19;;;28.09;49.95
8637;BME280;4356;49.068;8.658;2023-08-17T01:38:29;99991.31;;;28.02;49.88
8637;BME280;4356;49.068;8.658;2023-08-17T01:40:55;99990.75;;;28.05;50.37
8637;BME280;4356;49.068;8.658;2023-08-17T01:43:22;99986.63;;;28.02;50.43
8637;BME280;4356;49.068;8.658;2023-08-17T01:45:47;99991.03;;;28.03;50.29
8637;BME280;4356;49.068;8.658;2023-08-17T01:48:13;99993.78;;;28.03;50.36
8637;BME280;4356;49.068;8.658;2023-08-17T01:50:38;99983.31;;;28.00;50.24
8637;BME280;4356;49.068;8.658;2023-08-17T01:53:04;99991.34;;;27.97;50.35
8637;BME280;4356;49.068;8.658;2023-08-17T01:55:29;99991.63;;;27.95;50.41
8637;BME280;4356;49.068;8.658;2023-08-17T01:57:54;100002.09;;;27.98;50.15
8637;BME280;4356;49.068;8.658;2023-08-17T02:00:20;99992.16;;;27.92;50.24
8637;BME280;4356;49.068;8.658;2023-08-17T02:02:45;99988.88;;;27.95;50.44
8637;BME280;4356;49.068;8.658;2023-08-17T02:05:11;99988.88;;;27.95;50.47
8637;BME280;4356;49.068;8.658;2023-08-17T02:07:36;99979.47;;;27.86;50.22
8637;BME280;4356;49.068;8.658;2023-08-17T02:10:02;99984.97;;;27.91;50.34
8637;BME280;4356;49.068;8.658;2023-08-17T02:12:28;99981.38;;;27.91;50.47
8637;BME280;4356;49.068;8.658;2023-08-17T02:14:53;99978.34;;;27.87;50.14
8637;BME280;4356;49.068;8.658;2023-08-17T02:17:18;99966.78;;;27.80;50.27
8637;BME280;4356;49.068;8.658;2023-08-17T02:19:44;99976.44;;;27.88;50.31
8637;BME280;4356;49.068;8.658;2023-08-17T02:22:09;99966.75;;;27.85;50.41
8637;BME280;4356;49.068;8.658;2023-08-17T02:24:35;99964.28;;;27.84;50.05
8637;BME280;4356;49.068;8.658;2023-08-17T02:27:00;99962.06;;;27.86;50.24
8637;BME280;4356;49.068;8.658;2023-08-17T02:29:25;99945.00;;;27.74;50.15
8637;BME280;4356;49.068;8.658;2023-08-17T02:31:51;99958.50;;;27.80;50.32
8637;BME280;4356;49.068;8.658;2023-08-17T02:34:16;99963.75;;;27.82;50.23
8637;BME280;4356;49.068;8.658;2023-08-17T02:36:41;99962.09;;;27.81;50.29
8637;BME280;4356;49.068;8.658;2023-08-17T02:39:07;99964.84;;;27.81;50.17
8637;BME280;4356;49.068;8.658;2023-08-17T02:41:32;99953.56;;;27.77;50.21
8637;BME280;4356;49.068;8.658;2023-08-17T02:43:57;99948.03;;;27.77;50.04
8637;BME280;4356;49.068;8.658;2023-08-17T02:46:23;99941.97;;;27.75;50.05
8637;BME280;4356;49.068;8.658;2023-08-17T02:48:48;99943.06;;;27.74;50.24
8637;BME280;4356;49.068;8.658;2023-08-17T02:51:15;99944.72;;;27.75;50.18
8637;BME280;4356;49.068;8.658;2023-08-17T02:53:40;99933.94;;;27.69;50.13
8637;BME280;4356;49.068;8.658;2023-08-17T02:56:06;99935.88;;;27.73;49.90
8637;BME280;4356;49.068;8.658;2023-08-17T02:58:31;99934.22;;;27.72;50.38
8637;BME280;4356;49.068;8.658;2023-08-17T03:00:56;99934.78;;;27.69;50.21
8637;BME280;4356;49.068;8.658;2023-08-17T03:03:22;99931.19;;;27.69;50.22
8637;BME280;4356;49.068;8.658;2023-08-17T03:05:47;99935.34;;;27.71;50.14
8637;BME280;4356;49.068;8.658;2023-08-17T03:08:12;99938.94;;;27.67;50.09
8637;BME280;4356;49.068;8.658;2023-08-17T03:10:38;99939.75;;;27.67;50.00
8637;BME280;4356;49.068;8.658;2023-08-17T03:13:03;99938.41;;;27.65;50.18
8637;BME280;4356;49.068;8.658;2023-08-17T03:15:29;99938.94;;;27.67;50.30
8637;BME280;4356;49.068;8.658;2023-08-17T03:17:54;99938.41;;;27.65;50.31
8637;BME280;4356;49.068;8.658;2023-08-17T03:20:23;99941.97;;;27.65;49.98
8637;BME280;4356;49.068;8.658;2023-08-17T03:22:49;99930.97;;;27.60;50.17
8637;BME280;4356;49.068;8.658;2023-08-17T03:25:14;99932.59;;;27.61;50.19
8637;BME280;4356;49.068;8.658;2023-08-17T03:27:40;99932.59;;;27.61;49.85
8637;BME280;4356;49.068;8.658;2023-08-17T03:30:05;99930.97;;;27.60;50.18
8637;BME280;4356;49.068;8.658;2023-08-17T03:32:31;99932.59;;;27.61;50.33
8637;BME280;4356;49.068;8.658;2023-08-17T03:34:56;99928.78;;;27.57;50.01
8637;BME280;4356;49.068;8.658;2023-08-17T03:37:22;99930.13;;;27.60;50.24
8637;BME280;4356;49.068;8.658;2023-08-17T03:39:47;99926.81;;;27.58;50.01
8637;BME280;4356;49.068;8.658;2023-08-17T03:42:12;99925.19;;;27.57;50.13
8637;BME280;4356;49.068;8.658;2023-08-17T03:44:38;99922.69;;;27.55;50.17
8637;BME280;4356;49.068;8.658;2023-08-17T03:47:03;99910.88;;;27.45;50.23
8637;BME280;4356;49.068;8.658;2023-08-17T03:49:29;99930.97;;;27.55;50.00
8637;BME280;4356;49.068;8.658;2023-08-17T03:51:54;99931.81;;;27.51;50.07
8637;BME280;4356;49.068;8.658;2023-08-17T03:54:19;99935.41;;;27.51;49.87
8637;BME280;4356;49.068;8.658;2023-08-17T03:56:45;99923.84;;;27.44;50.10
8637;BME280;4356;49.068;8.658;2023-08-17T03:59:10;99931.25;;;27.49;49.96
8637;BME280;4356;49.068;8.658;2023-08-17T04:01:36;99928.78;;;27.47;50.02
8637;BME280;4356;49.068;8.658;2023-08-17T04:04:01;99923.84;;;27.44;50.03
8637;BME280;4356;49.068;8.658;2023-08-17T04:06:27;99936.25;;;27.47;50.11
8637;BME280;4356;49.068;8.658;2023-08-17T04:08:52;99939.53;;;27.49;50.13
8637;BME280;4356;49.068;8.658;2023-08-17T04:11:18;99938.47;;;27.45;50.19
8637;BME280;4356;49.068;8.658;2023-08-17T04:13:43;99938.19;;;27.46;50.15
8637;BME280;4356;49.068;8.658;2023-08-17T04:16:08;99946.75;;;27.39;50.28
8637;BME280;4356;49.068;8.658;2023-08-17T04:18:34;99939.00;;;27.41;50.01
8637;BME280;4356;49.068;8.658;2023-08-17T04:21:00;99945.09;;;27.43;50.22
8637;BME280;4356;49.068;8.658;2023-08-17T04:23:26;99952.53;;;27.43;50.20
8637;BME280;4356;49.068;8.658;2023-08-17T04:25:51;99945.66;;;27.35;50.25
8637;BME280;4356;49.068;8.658;2023-08-17T04:28:18;99955.56;;;27.41;50.25
8637;BME280;4356;49.068;8.658;2023-08-17T04:30:43;99955.31;;;27.38;50.06
8637;BME280;4356;49.068;8.658;2023-08-17T04:33:09;99956.13;;;27.38;50.28
8637;BME280;4356;49.068;8.658;2023-08-17T04:35:34;99949.78;;;27.38;50.24
8637;BME280;4356;49.068;8.658;2023-08-17T04:38:00;99948.97;;;27.37;50.23
8637;BME280;4356;49.068;8.658;2023-08-17T04:40:25;99960.81;;;27.38;50.13
8637;BME280;4356;49.068;8.658;2023-08-17T04:42:51;99958.34;;;27.36;50.08
8637;BME280;4356;49.068;8.658;2023-08-17T04:45:16;99955.88;;;27.35;50.30
8637;BME280;4356;49.068;8.658;2023-08-17T04:47:42;99964.44;;;27.33;50.43
8637;BME280;4356;49.068;8.658;2023-08-17T04:50:07;99954.78;;;27.31;50.23
8637;BME280;4356;49.068;8.658;2023-08-17T04:52:33;99963.59;;;27.33;50.14
8637;BME280;4356;49.068;8.658;2023-08-17T04:54:58;99962.75;;;27.32;50.23
8637;BME280;4356;49.068;8.658;2023-08-17T04:57:24;99961.91;;;27.27;50.31
8637;BME280;4356;49.068;8.658;2023-08-17T04:59:49;99959.97;;;27.27;50.23
8637;BME280;4356;49.068;8.658;2023-08-17T05:02:14;99963.88;;;27.31;50.43
8637;BME280;4356;49.068;8.658;2023-08-17T05:04:40;99967.97;;;27.29;50.14
8637;BME280;4356;49.068;8.658;2023-08-17T05:07:05;99961.66;;;27.28;50.40
8637;BME280;4356;49.068;8.658;2023-08-17T05:09:31;99966.06;;;27.29;50.41
8637;BME280;4356;49.068;8.658;2023-08-17T05:11:56;99974.34;;;27.29;50.40
8637;BME280;4356;49.068;8.658;2023-08-17T05:14:22;99964.69;;;27.22;50.25
8637;BME280;4356;49.068;8.658;2023-08-17T05:16:47;99970.47;;;27.25;50.58
8637;BME280;4356;49.068;8.658;2023-08-17T05:19:13;99978.47;;;27.27;50.43
8637;BME280;4356;49.068;8.658;2023-08-17T05:21:38;99975.16;;;27.25;50.45
8637;BME280;4356;49.068;8.658;2023-08-17T05:24:03;99976.00;;;27.25;50.44
8637;BME280;4356;49.068;8.658;2023-08-17T05:26:30;99968.00;;;27.24;50.39
8637;BME280;4356;49.068;8.658;2023-08-17T05:28:55;99972.69;;;27.23;50.28
8637;BME280;4356;49.068;8.658;2023-08-17T05:31:20;99979.88;;;27.24;50.48
8637;BME280;4356;49.068;8.658;2023-08-17T05:33:46;99989.50;;;27.27;50.21
8637;BME280;4356;49.068;8.658;2023-08-17T05:36:12;99984.56;;;27.24;50.22
8637;BME280;4356;49.068;8.658;2023-08-17T05:38:38;99983.16;;;27.21;50.41
8637;BME280;4356;49.068;8.658;2023-08-17T05:41:04;99992.53;;;27.25;50.57
8637;BME280;4356;49.068;8.658;2023-08-17T05:43:29;99986.75;;;27.22;50.54
8637;BME280;4356;49.068;8.658;2023-08-17T05:45:57;99971.31;;;27.16;50.15
8637;BME280;4356;49.068;8.658;2023-08-17T05:48:23;99995.59;;;27.24;50.52
8637;BME280;4356;49.068;8.658;2023-08-17T05:50:48;99998.34;;;27.24;50.39
8637;BME280;4356;49.068;8.658;2023-08-17T05:53:14;99999.19;;;27.24;50.30
8637;BME280;4356;49.068;8.658;2023-08-17T05:55:39;99989.22;;;27.23;50.18
8637;BME280;4356;49.068;8.658;2023-08-17T05:58:05;99990.63;;;27.21;50.22
8637;BME280;4356;49.068;8.658;2023-08-17T06:00:30;100002.75;;;27.25;50.43
8637;BME280;4356;49.068;8.658;2023-08-17T06:02:56;100006.63;;;27.24;50.27
8637;BME280;4356;49.068;8.658;2023-08-17T06:05:27;99992.56;;;27.20;50.33
8637;BME280;4356;49.068;8.658;2023-08-17T06:07:54;100006.63;;;27.24;50.22
8637;BME280;4356;49.068;8.658;2023-08-17T06:10:19;99997.25;;;27.20;50.66
8637;BME280;4356;49.068;8.658;2023-08-17T06:12:45;99998.66;;;27.17;50.56
8637;BME280;4356;49.068;8.658;2023-08-17T06:15:11;99994.22;;;27.16;50.73
8637;BME280;4356;49.068;8.658;2023-08-17T06:17:36;99990.38;;;27.17;50.75
8637;BME280;4356;49.068;8.658;2023-08-17T06:20:02;99997.53;;;27.18;50.72
8637;BME280;4356;49.068;8.658;2023-08-17T06:22:28;100000.84;;;27.15;50.62
8637;BME280;4356;49.068;8.658;2023-08-17T06:24:54;99992.84;;;27.14;50.81
8637;BME280;4356;49.068;8.658;2023-08-17T06:27:19;100004.13;;;27.12;50.81
8637;BME280;4356;49.068;8.658;2023-08-17T06:29:44;99996.44;;;27.09;50.84
8637;BME280;4356;49.068;8.658;2023-08-17T06:32:10;99995.88;;;27.07;50.75
8637;BME280;4356;49.068;8.658;2023-08-17T06:34:35;99997.78;;;27.07;51.14
8637;BME280;4356;49.068;8.658;2023-08-17T06:37:02;100000.56;;;27.07;51.04
8637;BME280;4356;49.068;8.658;2023-08-17T06:39:28;99991.19;;;27.03;51.20
8637;BME280;4356;49.068;8.658;2023-08-17T06:41:54;99991.19;;;27.03;51.08
8637;BME280;4356;49.068;8.658;2023-08-17T06:44:19;99997.81;;;27.02;51.26
8637;BME280;4356;49.068;8.658;2023-08-17T06:46:45;99995.03;;;27.02;51.40
8637;BME280;4356;49.068;8.658;2023-08-17T06:49:11;99996.44;;;26.99;51.48
8637;BME280;4356;49.068;8.658;2023-08-17T06:51:37;100002.19;;;26.98;51.52
8637;BME280;4356;49.068;8.658;2023-08-17T06:54:03;100005.81;;;26.98;51.72
8637;BME280;4356;49.068;8.658;2023-08-17T06:56:28;99998.09;;;26.95;51.46
8637;BME280;4356;49.068;8.658;2023-08-17T06:58:54;100005.53;;;26.95;51.86
8637;BME280;4356;49.068;8.658;2023-08-17T07:01:19;100000.28;;;26.93;51.93
8637;BME280;4356;49.068;8.658;2023-08-17T07:03:45;100011.88;;;26.95;51.94
8637;BME280;4356;49.068;8.658;2023-08-17T07:06:10;100001.66;;;26.91;51.84
8637;BME280;4356;49.068;8.658;2023-08-17T07:08:35;100010.19;;;26.94;52.23
8637;BME280;4356;49.068;8.658;2023-08-17T07:11:04;100010.75;;;26.96;52.47
8637;BME280;4356;49.068;8.658;2023-08-17T07:13:30;100007.72;;;26.93;52.47
8637;BME280;4356;49.068;8.658;2023-08-17T07:15:56;100004.69;;;26.94;52.28
8637;BME280;4356;49.068;8.658;2023-08-17T07:18:21;99999.44;;;26.93;52.31
8637;BME280;4356;49.068;8.658;2023-08-17T07:20:47;99995.84;;;26.92;52.66
8637;BME280;4356;49.068;8.658;2023-08-17T07:23:14;100006.63;;;26.94;52.57
8637;BME280;4356;49.068;8.658;2023-08-17T07:25:40;100001.66;;;26.91;52.86
8637;BME280;4356;49.068;8.658;2023-08-17T07:28:05;100007.72;;;26.93;52.69
8637;BME280;4356;49.068;8.658;2023-08-17T07:30:30;99999.44;;;26.93;52.83
8637;BME280;4356;49.068;8.658;2023-08-17T07:32:56;100003.31;;;26.92;52.96
8637;BME280;4356;49.068;8.658;2023-08-17T07:35:21;100008.28;;;26.95;53.01
8637;BME280;4356;49.068;8.658;2023-08-17T07:37:47;100009.41;;;26.94;53.11
8637;BME280;4356;49.068;8.658;2023-08-17T07:40:12;100004.13;;;26.92;53.15
8637;BME280;4356;49.068;8.658;2023-08-17T07:42:37;99995.06;;;26.87;52.91
8637;BME280;4356;49.068;8.658;2023-08-17T07:45:03;99994.78;;;26.88;53.21
8637;BME280;4356;49.068;8.658;2023-08-17T07:47:38;100006.91;;;26.97;53.25
8637;BME280;4356;49.068;8.658;2023-08-17T07:50:04;99994.78;;;26.88;53.20
8637;BME280;4356;49.068;8.658;2023-08-17T07:52:30;100004.97;;;26.98;53.11
8637;BME280;4356;49.068;8.658;2023-08-17T07:54:55;99996.69;;;26.93;53.47
8637;BME280;4356;49.068;8.658;2023-08-17T07:57:20;99998.91;;;26.96;53.31
8637;BME280;4356;49.068;8.658;2023-08-17T07:59:46;99996.69;;;26.98;53.32
8637;BME280;4356;49.068;8.658;2023-08-17T08:02:11;99989.81;;;26.95;53.22
8637;BME280;4356;49.068;8.658;2023-08-17T08:04:36;99998.91;;;27.01;53.15
8637;BME280;4356;49.068;8.658;2023-08-17T08:07:02;100001.13;;;26.99;53.25
8637;BME280;4356;49.068;8.658;2023-08-17T08:09:27;99997.53;;;26.98;53.19
8637;BME280;4356;49.068;8.658;2023-08-17T08:11:53;100001.69;;;27.01;53.31
8637;BME280;4356;49.068;8.658;2023-08-17T08:14:18;100005.28;;;27.01;53.29
8637;BME280;4356;49.068;8.658;2023-08-17T08:16:43;99996.97;;;26.96;53.29
8637;BME280;4356;49.068;8.658;2023-08-17T08:19:09;100004.44;;;27.01;53.44
8637;BME280;4356;49.068;8.658;2023-08-17T08:21:34;100010.22;;;27.04;53.57
8637;BME280;4356;49.068;8.658;2023-08-17T08:24:00;100003.59;;;27.00;53.34
8637;BME280;4356;49.068;8.658;2023-08-17T08:26:25;100001.41;;;26.97;53.41
8637;BME280;4356;49.068;8.658;2023-08-17T08:28:50;100015.47;;;27.06;53.46
8637;BME280;4356;49.068;8.658;2023-08-17T08:31:16;100013.25;;;27.08;53.63
8637;BME280;4356;49.068;8.658;2023-08-17T08:33:42;100016.56;;;27.10;53.55
8637;BME280;4356;49.068;8.658;2023-08-17T08:36:08;100014.34;;;27.07;53.43
8637;BME280;4356;49.068;8.658;2023-08-17T08:38:34;99998.34;;;27.04;53.42
8637;BME280;4356;49.068;8.658;2023-08-17T08:41:01;100011.34;;;27.08;53.67
8637;BME280;4356;49.068;8.658;2023-08-17T08:43:27;100008.00;;;27.11;53.65
8637;BME280;4356;49.068;8.658;2023-08-17T08:45:54;100007.72;;;27.13;53.44
8637;BME280;4356;49.068;8.658;2023-08-17T08:48:22;99984.84;;;27.02;53.80
8637;BME280;4356;49.068;8.658;2023-08-17T08:50:50;100012.41;;;27.12;53.63
8637;BME280;4356;49.068;8.658;2023-08-17T08:53:17;99999.75;;;27.01;53.79
8637;BME280;4356;49.068;8.658;2023-08-17T08:56:10;100016.84;;;27.13;53.71
8637;BME280;4356;49.068;8.658;2023-08-17T08:58:36;100014.63;;;27.15;53.88
8637;BME280;4356;49.068;8.658;2023-08-17T09:01:03;100002.50;;;27.11;53.92
8637;BME280;4356;49.068;8.658;2023-08-17T09:03:31;100006.09;;;27.17;53.88
8637;BME280;4356;49.068;8.658;2023-08-17T09:05:57;100006.09;;;27.17;53.92
8637;BME280;4356;49.068;8.658;2023-08-17T09:08:27;100013.78;;;27.20;54.00
8637;BME280;4356;49.068;8.658;2023-08-17T09:10:53;100002.19;;;27.18;53.94
8637;BME280;4356;49.068;8.658;2023-08-17T09:13:18;100001.09;;;27.24;53.75
8637;BME280;4356;49.068;8.658;2023-08-17T09:15:44;99996.69;;;27.18;53.89
8637;BME280;4356;49.068;8.658;2023-08-17T09:18:09;100004.69;;;27.24;53.58
8637;BME280;4356;49.068;8.658;2023-08-17T09:20:43;100002.50;;;27.26;53.64
8637;BME280;4356;49.068;8.658;2023-08-17T09:23:20;99994.78;;;27.28;53.53
8637;BME280;4356;49.068;8.658;2023-08-17T09:25:47;100000.28;;;27.28;53.54
8637;BME280;4356;49.068;8.658;2023-08-17T09:28:15;99997.00;;;27.31;53.44
8637;BME280;4356;49.068;8.658;2023-08-17T09:31:01;99991.72;;;27.30;53.59
8637;BME280;4356;49.068;8.658;2023-08-17T09:33:32;99993.94;;;27.38;53.26
8637;BME280;4356;49.068;8.658;2023-08-17T09:35:59;99993.66;;;27.39;53.63
8637;BME280;4356;49.068;8.658;2023-08-17T09:38:25;99982.09;;;27.37;53.29
8637;BME280;4356;49.068;8.658;2023-08-17T09:40:51;99975.47;;;27.38;53.44
8637;BME280;4356;49.068;8.658;2023-08-17T09:43:20;99977.09;;;27.39;53.45
8637;BME280;4356;49.068;8.658;2023-08-17T09:45:57;99972.16;;;27.36;53.38
8637;BME280;4356;49.068;8.658;2023-08-17T09:48:24;99976.00;;;27.40;53.34
8637;BME280;4356;49.068;8.658;2023-08-17T09:50:50;99977.13;;;27.45;53.33
8637;BME280;4356;49.068;8.658;2023-08-17T09:53:19;99966.59;;;27.41;52.99
8637;BME280;4356;49.068;8.658;2023-08-17T09:55:45;99975.72;;;27.47;52.94
8637;BME280;4356;49.068;8.658;2023-08-17T09:58:11;99985.34;;;27.55;53.10
8637;BME280;4356;49.068;8.658;2023-08-17T10:00:47;99971.28;;;27.51;53.14
8637;BME280;4356;49.068;8.658;2023-08-17T10:03:15;99963.25;;;27.60;53.22
8637;BME280;4356;49.068;8.658;2023-08-17T10:05:43;99968.50;;;27.61;53.19
8637;BME280;4356;49.068;8.658;2023-08-17T10:08:10;99965.75;;;27.66;53.17
8637;BME280;4356;49.068;8.658;2023-08-17T10:10:40;99976.75;;;27.71;53.08
8637;BME280;4356;49.068;8.658;2023-08-17T10:13:14;99977.31;;;27.73;52.94
8637;BME280;4356;49.068;8.658;2023-08-17T10:15:49;99977.28;;;27.78;52.72
8637;BME280;4356;49.068;8.658;2023-08-17T10:18:19;99980.84;;;27.84;52.85
8637;BME280;4356;49.068;8.658;2023-08-17T10:20:54;99969.00;;;27.78;52.82
8637;BME280;4356;49.068;8.658;2023-08-17T10:23:26;99981.66;;;27.89;52.95
8637;BME280;4356;49.068;8.658;2023-08-17T10:25:52;99989.97;;;27.94;52.40
8637;BME280;4356;49.068;8.658;2023-08-17T10:28:18;99976.97;;;27.95;52.78
8637;BME280;4356;49.068;8.658;2023-08-17T10:30:43;99970.06;;;27.92;52.72
8637;BME280;4356;49.068;8.658;2023-08-17T10:33:09;99975.56;;;28.02;52.65
8637;BME280;4356;49.068;8.658;2023-08-17T10:35:35;99983.56;;;28.04;52.54
8637;BME280;4356;49.068;8.658;2023-08-17T10:38:03;99973.63;;;28.03;52.79
8637;BME280;4356;49.068;8.658;2023-08-17T10:40:35;99973.59;;;28.13;52.60
8637;BME280;4356;49.068;8.658;2023-08-17T10:43:00;99970.25;;;28.16;52.36
8637;BME280;4356;49.068;8.658;2023-08-17T10:45:33;99973.81;;;28.21;52.34
8637;BME280;4356;49.068;8.658;2023-08-17T10:50:32;99982.91;;;28.27;52.14
8637;BME280;4356;49.068;8.658;2023-08-17T10:53:12;99977.91;;;28.29;52.01
8637;BME280;4356;49.068;8.658;2023-08-17T10:55:38;99985.88;;;28.35;52.03
8637;BME280;4356;49.068;8.658;2023-08-17T10:58:05;99962.47;;;28.28;51.93
8637;BME280;4356;49.068;8.658;2023-08-17T11:00:42;99978.97;;;28.38;51.95
8637;BME280;4356;49.068;8.658;2023-08-17T11:03:17;99976.47;;;28.41;51.99
8637;BME280;4356;49.068;8.658;2023-08-17T11:08:39;99986.91;;;28.55;52.06
8637;BME280;4356;49.068;8.658;2023-08-17T11:11:15;99980.56;;;28.54;51.72
8637;BME280;4356;49.068;8.658;2023-08-17T11:13:42;99986.59;;;28.61;51.67
8637;BME280;4356;49.068;8.658;2023-08-17T11:16:09;99984.38;;;28.63;51.60
8637;BME280;4356;49.068;8.658;2023-08-17T11:18:35;99990.69;;;28.69;51.89
8637;BME280;4356;49.068;8.658;2023-08-17T11:21:05;99970.75;;;28.72;51.71
8637;BME280;4356;49.068;8.658;2023-08-17T11:23:32;99965.50;;;28.75;51.55
8637;BME280;4356;49.068;8.658;2023-08-17T11:25:57;99969.03;;;28.81;51.50
8637;BME280;4356;49.068;8.658;2023-08-17T11:28:24;99960.47;;;28.82;51.27
8637;BME280;4356;49.068;8.658;2023-08-17T11:31:00;99957.69;;;28.82;51.42
8637;BME280;4356;49.068;8.658;2023-08-17T11:33:27;99965.06;;;28.92;51.05
8637;BME280;4356;49.068;8.658;2023-08-17T11:35:59;99975.03;;;28.93;51.13
8637;BME280;4356;49.068;8.658;2023-08-17T11:38:25;99976.66;;;28.94;50.90
8637;BME280;4356;49.068;8.658;2023-08-17T11:40:51;99975.56;;;28.95;51.35
8637;BME280;4356;49.068;8.658;2023-08-17T11:43:17;99962.28;;;28.97;50.74
8637;BME280;4356;49.068;8.658;2023-08-17T11:45:43;99960.06;;;28.99;51.18
8637;BME280;4356;49.068;8.658;2023-08-17T11:48:09;99965.81;;;29.02;51.05
8637;BME280;4356;49.068;8.658;2023-08-17T11:50:35;99975.22;;;29.01;50.79
8637;BME280;4356;49.068;8.658;2023-08-17T11:53:00;99985.69;;;29.04;51.09
8637;BME280;4356;49.068;8.658;2023-08-17T11:55:26;99990.44;;;29.04;50.87
8637;BME280;4356;49.068;8.658;2023-08-17T11:57:52;99994.59;;;29.01;51.19
8637;BME280;4356;49.068;8.658;2023-08-17T12:00:21;100003.13;;;29.05;50.81
8637;BME280;4356;49.068;8.658;2023-08-17T12:02:51;100009.81;;;29.04;51.25
8637;BME280;4356;49.068;8.658;2023-08-17T12:05:21;100014.78;;;29.02;50.92
8637;BME280;4356;49.068;8.658;2023-08-17T12:07:49;100013.13;;;29.01;51.12
8637;BME280;4356;49.068;8.658;2023-08-17T12:10:14;100007.34;;;28.97;50.91
8637;BME280;4356;49.068;8.658;2023-08-17T12:12:40;100014.50;;;29.03;50.89
8637;BME280;4356;49.068;8.658;2023-08-17T12:15:05;100015.63;;;29.02;51.09
8637;BME280;4356;49.068;8.658;2023-08-17T12:17:31;100013.13;;;29.01;51.01
8637;BME280;4356;49.068;8.658;2023-08-17T12:19:58;100013.66;;;29.03;51.04
8637;BME280;4356;49.068;8.658;2023-08-17T12:22:25;100007.09;;;28.99;51.22
8637;BME280;4356;49.068;8.658;2023-08-17T12:24:51;99990.75;;;28.97;50.91
8637;BME280;4356;49.068;8.658;2023-08-17T12:27:17;99995.47;;;28.97;51.32
8637;BME280;4356;49.068;8.658;2023-08-17T12:29:50;99983.88;;;28.95;51.14
8637;BME280;4356;49.068;8.658;2023-08-17T12:32:18;99995.75;;;28.95;51.25
8637;BME280;4356;49.068;8.658;2023-08-17T12:34:44;99995.50;;;28.92;51.49
8637;BME280;4356;49.068;8.658;2023-08-17T12:37:11;100004.34;;;28.94;51.23
8637;BME280;4356;49.068;8.658;2023-08-17T12:39:37;100004.09;;;28.90;51.59
8637;BME280;4356;49.068;8.658;2023-08-17T12:42:04;100002.41;;;28.94;51.58
8637;BME280;4356;49.068;8.658;2023-08-17T12:44:29;99984.16;;;28.93;51.48
8637;BME280;4356;49.068;8.658;2023-08-17T12:46:54;99975.31;;;28.91;51.58
8637;BME280;4356;49.068;8.658;2023-08-17T12:49:20;99978.91;;;28.92;51.45
8637;BME280;4356;49.068;8.658;2023-08-17T12:51:45;99968.97;;;28.91;51.62
8637;BME280;4356;49.068;8.658;2023-08-17T12:54:10;99970.88;;;28.90;51.59
8637;BME280;4356;49.068;8.658;2023-08-17T12:56:36;99975.31;;;28.91;51.87
8637;BME280;4356;49.068;8.658;2023-08-17T12:59:01;99981.66;;;28.92;51.53
8637;BME280;4356;49.068;8.658;2023-08-17T13:01:27;99980.28;;;28.94;51.69
8637;BME280;4356;49.068;8.658;2023-08-17T13:03:52;99973.91;;;28.94;51.45
8637;BME280;4356;49.068;8.658;2023-08-17T13:06:17;99967.56;;;28.93;51.51
8637;BME280;4356;49.068;8.658;2023-08-17T13:08:43;99965.84;;;28.97;51.80
8637;BME280;4356;49.068;8.658;2023-08-17T13:11:10;99948.47;;;28.92;51.77
8637;BME280;4356;49.068;8.658;2023-08-17T13:13:35;99956.19;;;28.95;51.71
8637;BME280;4356;49.068;8.658;2023-08-17T13:16:01;99951.22;;;28.97;51.44
8637;BME280;4356;49.068;8.658;2023-08-17T13:18:26;99946.47;;;28.97;51.62
8637;BME280;4356;49.068;8.658;2023-08-17T13:20:53;99943.72;;;28.97;51.40
8637;BME280;4356;49.068;8.658;2023-08-17T13:23:19;99934.59;;;28.97;51.61
8637;BME280;4356;49.068;8.658;2023-08-17T13:25:44;99936.25;;;28.98;51.33
8637;BME280;4356;49.068;8.658;2023-08-17T13:28:10;99935.94;;;28.99;51.45